sensor_id;sensor_type;location;lat;lon;timestamp;P1;durP1;ratioP1;P2;durP2;ratioP2
5343;SDS011;2694;48.954;8.928;2023-10-09T00:02:05;7.25;;;3.60;;
5343;SDS011;2694;48.954;8.928;2023-10-09T00:04:35;10.10;;;3.45;;
5343;SDS011;2694;48.954;8.928;2023-10-09T00:07:07;14.07;;;3.60;;
5343;SDS011;2694;48.954;8.928;2023-10-09T00:09:36;11.95;;;3.47;;
5343;SDS011;2694;48.954;8.928;2023-10-09T00:12:12;13.35;;;3.70;;
5343;SDS011;2694;48.954;8.928;2023-10-09T00:14:41;13.18;;;4.40;;
5343;SDS011;2694;48.954;8.928;2023-10-09T00:17:13;11.52;;;4.20;;
5343;SDS011;2694;48.954;8.928;2023-10-09T00:19:45;8.50;;;3.38;;
5343;SDS011;2694;48.954;8.928;2023-10-09T00:22:16;10.80;;;3.75;;
5343;SDS011;2694;48.954;8.928;2023-10-09T00:24:51;15.63;;;4.17;;
5343;SDS011;2694;48.954;8.928;2023-10-09T00:27:35;13.98;;;4.18;;
5343;SDS011;2694;48.954;8.928;2023-10-09T00:30:08;8.48;;;3.38;;
5343;SDS011;2694;48.954;8.928;2023-10-09T00:32:40;8.73;;;3.45;;
5343;SDS011;2694;48.954;8.928;2023-10-09T00:35:18;10.13;;;4.40;;
5343;SDS011;2694;48.954;8.928;2023-10-09T00:38:11;8.70;;;3.28;;
5343;SDS011;2694;48.954;8.928;2023-10-09T00:40:49;10.77;;;3.73;;
5343;SDS011;2694;48.954;8.928;2023-10-09T00:43:27;12.18;;;4.70;;
5343;SDS011;2694;48.954;8.928;2023-10-09T00:45:55;12.13;;;4.00;;
5343;SDS011;2694;48.954;8.928;2023-10-09T00:48:25;15.70;;;4.88;;
5343;SDS011;2694;48.954;8.928;2023-10-09T00:50:58;11.52;;;4.20;;
5343;SDS011;2694;48.954;8.928;2023-10-09T00:53:25;15.52;;;4.22;;
5343;SDS011;2694;48.954;8.928;2023-10-09T00:55:58;11.43;;;4.28;;
5343;SDS011;2694;48.954;8.928;2023-10-09T00:58:36;13.35;;;4.95;;
5343;SDS011;2694;48.954;8.928;2023-10-09T01:01:05;12.35;;;3.90;;
5343;SDS011;2694;48.954;8.928;2023-10-09T01:03:40;11.68;;;4.10;;
5343;SDS011;2694;48.954;8.928;2023-10-09T01:06:10;11.73;;;4.45;;
5343;SDS011;2694;48.954;8.928;2023-10-09T01:08:46;10.63;;;3.55;;
5343;SDS011;2694;48.954;8.928;2023-10-09T01:11:21;10.98;;;4.25;;
5343;SDS011;2694;48.954;8.928;2023-10-09T01:13:54;14.75;;;4.20;;
5343;SDS011;2694;48.954;8.928;2023-10-09T01:16:36;11.82;;;3.90;;
5343;SDS011;2694;48.954;8.928;2023-10-09T01:19:06;11.18;;;3.95;;
5343;SDS011;2694;48.954;8.928;2023-10-09T01:21:40;13.38;;;4.10;;
5343;SDS011;2694;48.954;8.928;2023-10-09T01:24:11;12.80;;;4.35;;
5343;SDS011;2694;48.954;8.928;2023-10-09T01:26:38;12.43;;;4.00;;
5343;SDS011;2694;48.954;8.928;2023-10-09T01:29:09;14.82;;;4.50;;
5343;SDS011;2694;48.954;8.928;2023-10-09T01:31:42;9.35;;;3.80;;
5343;SDS011;2694;48.954;8.928;2023-10-09T01:34:16;12.05;;;4.10;;
5343;SDS011;2694;48.954;8.928;2023-10-09T01:36:44;10.40;;;4.07;;
5343;SDS011;2694;48.954;8.928;2023-10-09T01:39:15;14.88;;;4.13;;
5343;SDS011;2694;48.954;8.928;2023-10-09T01:41:51;12.73;;;4.03;;
5343;SDS011;2694;48.954;8.928;2023-10-09T01:44:24;10.82;;;3.72;;
5343;SDS011;2694;48.954;8.928;2023-10-09T01:46:53;11.55;;;3.70;;
5343;SDS011;2694;48.954;8.928;2023-10-09T01:49:22;10.65;;;4.30;;
5343;SDS011;2694;48.954;8.928;2023-10-09T01:51:55;15.25;;;4.90;;
5343;SDS011;2694;48.954;8.928;2023-10-09T01:54:28;10.48;;;3.70;;
5343;SDS011;2694;48.954;8.928;2023-10-09T01:57:01;12.90;;;4.80;;
5343;SDS011;2694;48.954;8.928;2023-10-09T01:59:31;10.57;;;3.80;;
5343;SDS011;2694;48.954;8.928;2023-10-09T02:01:58;9.43;;;3.70;;
5343;SDS011;2694;48.954;8.928;2023-10-09T02:04:31;11.75;;;3.80;;
5343;SDS011;2694;48.954;8.928;2023-10-09T02:06:58;13.00;;;4.10;;
5343;SDS011;2694;48.954;8.928;2023-10-09T02:09:33;10.65;;;3.70;;
5343;SDS011;2694;48.954;8.928;2023-10-09T02:12:00;8.48;;;3.55;;
5343;SDS011;2694;48.954;8.928;2023-10-09T02:14:27;8.82;;;4.00;;
5343;SDS011;2694;48.954;8.928;2023-10-09T02:16:54;10.23;;;4.00;;
5343;SDS011;2694;48.954;8.928;2023-10-09T02:19:38;8.80;;;3.50;;
5343;SDS011;2694;48.954;8.928;2023-10-09T02:22:10;8.52;;;4.05;;
5343;SDS011;2694;48.954;8.928;2023-10-09T02:24:40;14.23;;;4.88;;
5343;SDS011;2694;48.954;8.928;2023-10-09T02:27:15;11.63;;;4.20;;
5343;SDS011;2694;48.954;8.928;2023-10-09T02:30:05;11.00;;;4.50;;
5343;SDS011;2694;48.954;8.928;2023-10-09T02:32:43;15.30;;;4.28;;
5343;SDS011;2694;48.954;8.928;2023-10-09T02:35:14;17.67;;;3.72;;
5343;SDS011;2694;48.954;8.928;2023-10-09T02:37:53;11.32;;;4.15;;
5343;SDS011;2694;48.954;8.928;2023-10-09T02:40:22;10.67;;;3.70;;
5343;SDS011;2694;48.954;8.928;2023-10-09T02:42:52;14.73;;;4.50;;
5343;SDS011;2694;48.954;8.928;2023-10-09T02:45:19;12.50;;;4.25;;
5343;SDS011;2694;48.954;8.928;2023-10-09T02:47:54;12.52;;;4.00;;
5343;SDS011;2694;48.954;8.928;2023-10-09T02:50:22;12.93;;;3.60;;
5343;SDS011;2694;48.954;8.928;2023-10-09T02:52:53;11.40;;;4.05;;
5343;SDS011;2694;48.954;8.928;2023-10-09T02:55:26;10.57;;;3.70;;
5343;SDS011;2694;48.954;8.928;2023-10-09T02:57:54;14.75;;;4.28;;
5343;SDS011;2694;48.954;8.928;2023-10-09T03:00:30;15.02;;;3.85;;
5343;SDS011;2694;48.954;8.928;2023-10-09T03:03:01;14.45;;;4.70;;
5343;SDS011;2694;48.954;8.928;2023-10-09T03:05:31;12.73;;;4.10;;
5343;SDS011;2694;48.954;8.928;2023-10-09T03:07:58;9.60;;;3.80;;
5343;SDS011;2694;48.954;8.928;2023-10-09T03:10:28;11.68;;;4.20;;
5343;SDS011;2694;48.954;8.928;2023-10-09T03:12:55;15.80;;;4.70;;
5343;SDS011;2694;48.954;8.928;2023-10-09T03:15:25;10.95;;;3.80;;
5343;SDS011;2694;48.954;8.928;2023-10-09T03:17:54;16.10;;;4.30;;
5343;SDS011;2694;48.954;8.928;2023-10-09T03:20:21;11.50;;;3.70;;
5343;SDS011;2694;48.954;8.928;2023-10-09T03:22:48;13.80;;;4.25;;
5343;SDS011;2694;48.954;8.928;2023-10-09T03:25:15;11.55;;;4.28;;
5343;SDS011;2694;48.954;8.928;2023-10-09T03:27:44;9.88;;;3.97;;
5343;SDS011;2694;48.954;8.928;2023-10-09T03:30:12;12.95;;;4.10;;
5343;SDS011;2694;48.954;8.928;2023-10-09T03:32:45;14.55;;;4.70;;
5343;SDS011;2694;48.954;8.928;2023-10-09T03:35:16;9.02;;;4.50;;
5343;SDS011;2694;48.954;8.928;2023-10-09T03:37:49;10.88;;;4.32;;
5343;SDS011;2694;48.954;8.928;2023-10-09T03:40:17;16.23;;;4.60;;
5343;SDS011;2694;48.954;8.928;2023-10-09T03:42:46;14.35;;;4.80;;
5343;SDS011;2694;48.954;8.928;2023-10-09T03:45:13;12.13;;;4.60;;
5343;SDS011;2694;48.954;8.928;2023-10-09T03:47:51;12.40;;;3.80;;
5343;SDS011;2694;48.954;8.928;2023-10-09T03:50:23;15.43;;;3.83;;
5343;SDS011;2694;48.954;8.928;2023-10-09T03:52:52;10.73;;;4.50;;
5343;SDS011;2694;48.954;8.928;2023-10-09T03:55:20;15.77;;;3.65;;
5343;SDS011;2694;48.954;8.928;2023-10-09T03:57:54;11.93;;;4.00;;
5343;SDS011;2694;48.954;8.928;2023-10-09T04:00:22;11.50;;;4.00;;
5343;SDS011;2694;48.954;8.928;2023-10-09T04:02:53;12.93;;;4.20;;
5343;SDS011;2694;48.954;8.928;2023-10-09T04:05:20;13.70;;;4.03;;
5343;SDS011;2694;48.954;8.928;2023-10-09T04:07:47;12.33;;;4.70;;
5343;SDS011;2694;48.954;8.928;2023-10-09T04:10:16;18.52;;;5.00;;
5343;SDS011;2694;48.954;8.928;2023-10-09T04:12:59;13.48;;;4.47;;
5343;SDS011;2694;48.954;8.928;2023-10-09T04:15:28;11.88;;;4.57;;
5343;SDS011;2694;48.954;8.928;2023-10-09T04:18:00;12.82;;;4.47;;
5343;SDS011;2694;48.954;8.928;2023-10-09T04:20:29;14.95;;;4.80;;
5343;SDS011;2694;48.954;8.928;2023-10-09T04:23:37;16.15;;;4.20;;
5343;SDS011;2694;48.954;8.928;2023-10-09T04:26:25;13.88;;;3.90;;
5343;SDS011;2694;48.954;8.928;2023-10-09T04:28:55;21.73;;;5.15;;
5343;SDS011;2694;48.954;8.928;2023-10-09T04:31:22;16.05;;;5.20;;
5343;SDS011;2694;48.954;8.928;2023-10-09T04:33:57;14.60;;;5.05;;
5343;SDS011;2694;48.954;8.928;2023-10-09T04:36:38;14.68;;;5.10;;
5343;SDS011;2694;48.954;8.928;2023-10-09T04:39:12;14.45;;;4.18;;
5343;SDS011;2694;48.954;8.928;2023-10-09T04:42:00;18.15;;;5.20;;
5343;SDS011;2694;48.954;8.928;2023-10-09T04:45:02;14.40;;;5.40;;
5343;SDS011;2694;48.954;8.928;2023-10-09T04:48:05;12.65;;;4.00;;
5343;SDS011;2694;48.954;8.928;2023-10-09T04:50:34;16.90;;;5.20;;
5343;SDS011;2694;48.954;8.928;2023-10-09T04:53:30;15.90;;;5.05;;
5343;SDS011;2694;48.954;8.928;2023-10-09T04:56:04;17.13;;;4.80;;
5343;SDS011;2694;48.954;8.928;2023-10-09T04:58:40;19.63;;;5.22;;
5343;SDS011;2694;48.954;8.928;2023-10-09T05:01:10;13.73;;;5.50;;
5343;SDS011;2694;48.954;8.928;2023-10-09T05:03:41;15.35;;;5.22;;
5343;SDS011;2694;48.954;8.928;2023-10-09T05:06:13;18.70;;;5.13;;
5343;SDS011;2694;48.954;8.928;2023-10-09T05:08:57;13.45;;;4.72;;
5343;SDS011;2694;48.954;8.928;2023-10-09T05:11:34;11.50;;;4.87;;
5343;SDS011;2694;48.954;8.928;2023-10-09T05:14:18;15.75;;;5.05;;
5343;SDS011;2694;48.954;8.928;2023-10-09T05:16:53;16.75;;;5.10;;
5343;SDS011;2694;48.954;8.928;2023-10-09T05:19:20;17.50;;;6.07;;
5343;SDS011;2694;48.954;8.928;2023-10-09T05:22:06;17.40;;;5.30;;
5343;SDS011;2694;48.954;8.928;2023-10-09T05:24:41;14.65;;;5.20;;
5343;SDS011;2694;48.954;8.928;2023-10-09T05:27:11;13.95;;;4.70;;
5343;SDS011;2694;48.954;8.928;2023-10-09T05:29:42;15.98;;;5.20;;
5343;SDS011;2694;48.954;8.928;2023-10-09T05:32:25;19.70;;;5.85;;
5343;SDS011;2694;48.954;8.928;2023-10-09T05:35:00;21.23;;;6.50;;
5343;SDS011;2694;48.954;8.928;2023-10-09T05:37:40;13.90;;;4.88;;
5343;SDS011;2694;48.954;8.928;2023-10-09T05:40:11;13.25;;;5.30;;
5343;SDS011;2694;48.954;8.928;2023-10-09T05:42:56;18.63;;;5.97;;
5343;SDS011;2694;48.954;8.928;2023-10-09T05:45:25;16.33;;;5.53;;
5343;SDS011;2694;48.954;8.928;2023-10-09T05:48:10;13.95;;;5.30;;
5343;SDS011;2694;48.954;8.928;2023-10-09T05:50:55;12.52;;;5.22;;
5343;SDS011;2694;48.954;8.928;2023-10-09T05:53:44;12.43;;;5.13;;
5343;SDS011;2694;48.954;8.928;2023-10-09T05:56:28;19.13;;;5.63;;
5343;SDS011;2694;48.954;8.928;2023-10-09T05:59:09;21.35;;;5.80;;
5343;SDS011;2694;48.954;8.928;2023-10-09T06:01:50;18.27;;;5.50;;
5343;SDS011;2694;48.954;8.928;2023-10-09T06:04:50;19.55;;;5.60;;
5343;SDS011;2694;48.954;8.928;2023-10-09T06:07:20;12.40;;;4.87;;
5343;SDS011;2694;48.954;8.928;2023-10-09T06:10:06;16.17;;;5.27;;
5343;SDS011;2694;48.954;8.928;2023-10-09T06:12:43;17.48;;;5.38;;
5343;SDS011;2694;48.954;8.928;2023-10-09T06:15:21;14.07;;;5.00;;
5343;SDS011;2694;48.954;8.928;2023-10-09T06:18:14;14.27;;;5.38;;
5343;SDS011;2694;48.954;8.928;2023-10-09T06:20:58;17.47;;;5.10;;
5343;SDS011;2694;48.954;8.928;2023-10-09T06:23:33;13.77;;;4.78;;
5343;SDS011;2694;48.954;8.928;2023-10-09T06:26:20;13.60;;;4.70;;
5343;SDS011;2694;48.954;8.928;2023-10-09T06:28:50;15.27;;;5.55;;
5343;SDS011;2694;48.954;8.928;2023-10-09T06:31:39;17.95;;;5.90;;
5343;SDS011;2694;48.954;8.928;2023-10-09T06:34:26;18.15;;;5.93;;
5343;SDS011;2694;48.954;8.928;2023-10-09T06:37:01;17.73;;;5.65;;
5343;SDS011;2694;48.954;8.928;2023-10-09T06:39:42;16.05;;;5.75;;
5343;SDS011;2694;48.954;8.928;2023-10-09T06:42:32;18.38;;;5.35;;
5343;SDS011;2694;48.954;8.928;2023-10-09T06:45:09;20.85;;;5.50;;
5343;SDS011;2694;48.954;8.928;2023-10-09T06:47:40;16.20;;;6.20;;
5343;SDS011;2694;48.954;8.928;2023-10-09T06:50:07;19.27;;;6.28;;
5343;SDS011;2694;48.954;8.928;2023-10-09T06:52:51;18.73;;;5.30;;
5343;SDS011;2694;48.954;8.928;2023-10-09T06:55:44;13.40;;;5.60;;
5343;SDS011;2694;48.954;8.928;2023-10-09T06:58:13;14.85;;;5.20;;
5343;SDS011;2694;48.954;8.928;2023-10-09T07:00:41;17.67;;;5.20;;
5343;SDS011;2694;48.954;8.928;2023-10-09T07:03:34;16.52;;;5.55;;
5343;SDS011;2694;48.954;8.928;2023-10-09T07:06:17;21.50;;;5.63;;
5343;SDS011;2694;48.954;8.928;2023-10-09T07:08:50;16.27;;;4.78;;
5343;SDS011;2694;48.954;8.928;2023-10-09T07:11:41;13.68;;;5.00;;
5343;SDS011;2694;48.954;8.928;2023-10-09T07:14:28;14.88;;;5.55;;
5343;SDS011;2694;48.954;8.928;2023-10-09T07:17:13;14.30;;;4.70;;
5343;SDS011;2694;48.954;8.928;2023-10-09T07:19:47;14.15;;;5.43;;
5343;SDS011;2694;48.954;8.928;2023-10-09T07:22:38;13.65;;;5.20;;
5343;SDS011;2694;48.954;8.928;2023-10-09T07:25:19;16.75;;;5.60;;
5343;SDS011;2694;48.954;8.928;2023-10-09T07:28:00;17.90;;;5.55;;
5343;SDS011;2694;48.954;8.928;2023-10-09T07:30:28;15.85;;;5.50;;
5343;SDS011;2694;48.954;8.928;2023-10-09T07:33:04;19.23;;;6.10;;
5343;SDS011;2694;48.954;8.928;2023-10-09T07:35:42;14.48;;;5.00;;
5343;SDS011;2694;48.954;8.928;2023-10-09T07:38:15;19.13;;;5.57;;
5343;SDS011;2694;48.954;8.928;2023-10-09T07:40:46;19.30;;;5.20;;
5343;SDS011;2694;48.954;8.928;2023-10-09T07:43:21;13.95;;;5.25;;
5343;SDS011;2694;48.954;8.928;2023-10-09T07:45:52;15.60;;;5.65;;
5343;SDS011;2694;48.954;8.928;2023-10-09T07:48:36;16.92;;;5.20;;
5343;SDS011;2694;48.954;8.928;2023-10-09T07:51:14;22.08;;;5.72;;
5343;SDS011;2694;48.954;8.928;2023-10-09T07:53:41;25.63;;;5.80;;
5343;SDS011;2694;48.954;8.928;2023-10-09T07:56:11;22.45;;;5.13;;
5343;SDS011;2694;48.954;8.928;2023-10-09T07:58:45;28.40;;;6.38;;
5343;SDS011;2694;48.954;8.928;2023-10-09T08:01:13;31.77;;;6.10;;
5343;SDS011;2694;48.954;8.928;2023-10-09T08:03:48;19.75;;;5.95;;
5343;SDS011;2694;48.954;8.928;2023-10-09T08:06:23;18.95;;;5.00;;
5343;SDS011;2694;48.954;8.928;2023-10-09T08:09:07;17.38;;;5.28;;
5343;SDS011;2694;48.954;8.928;2023-10-09T08:11:47;18.98;;;6.00;;
5343;SDS011;2694;48.954;8.928;2023-10-09T08:14:38;28.60;;;6.22;;
5343;SDS011;2694;48.954;8.928;2023-10-09T08:17:08;27.20;;;7.90;;
5343;SDS011;2694;48.954;8.928;2023-10-09T08:19:40;25.42;;;6.05;;
5343;SDS011;2694;48.954;8.928;2023-10-09T08:22:20;28.65;;;7.10;;
5343;SDS011;2694;48.954;8.928;2023-10-09T08:25:05;41.78;;;8.45;;
5343;SDS011;2694;48.954;8.928;2023-10-09T08:27:34;43.70;;;7.60;;
5343;SDS011;2694;48.954;8.928;2023-10-09T08:30:12;32.30;;;8.68;;
5343;SDS011;2694;48.954;8.928;2023-10-09T08:32:53;48.00;;;9.70;;
5343;SDS011;2694;48.954;8.928;2023-10-09T08:35:26;37.95;;;9.60;;
5343;SDS011;2694;48.954;8.928;2023-10-09T08:37:56;41.17;;;9.32;;
5343;SDS011;2694;48.954;8.928;2023-10-09T08:40:29;38.42;;;9.57;;
5343;SDS011;2694;48.954;8.928;2023-10-09T08:43:01;47.85;;;10.80;;
5343;SDS011;2694;48.954;8.928;2023-10-09T08:45:40;66.00;;;14.02;;
5343;SDS011;2694;48.954;8.928;2023-10-09T08:48:10;43.42;;;8.43;;
5343;SDS011;2694;48.954;8.928;2023-10-09T08:50:40;33.33;;;7.15;;
5343;SDS011;2694;48.954;8.928;2023-10-09T08:53:08;39.63;;;8.32;;
5343;SDS011;2694;48.954;8.928;2023-10-09T08:55:36;56.95;;;8.50;;
5343;SDS011;2694;48.954;8.928;2023-10-09T08:58:06;65.20;;;9.40;;
5343;SDS011;2694;48.954;8.928;2023-10-09T09:00:43;63.33;;;8.97;;
5343;SDS011;2694;48.954;8.928;2023-10-09T09:03:11;66.88;;;10.05;;
5343;SDS011;2694;48.954;8.928;2023-10-09T09:05:40;49.55;;;9.68;;
5343;SDS011;2694;48.954;8.928;2023-10-09T09:08:20;48.85;;;9.70;;
5343;SDS011;2694;48.954;8.928;2023-10-09T09:10:51;41.08;;;8.98;;
5343;SDS011;2694;48.954;8.928;2023-10-09T09:13:24;50.97;;;10.30;;
5343;SDS011;2694;48.954;8.928;2023-10-09T09:15:56;50.75;;;7.72;;
5343;SDS011;2694;48.954;8.928;2023-10-09T09:18:24;49.08;;;8.25;;
5343;SDS011;2694;48.954;8.928;2023-10-09T09:20:57;35.95;;;6.90;;
5343;SDS011;2694;48.954;8.928;2023-10-09T09:23:24;38.85;;;7.80;;
5343;SDS011;2694;48.954;8.928;2023-10-09T09:25:52;34.10;;;6.30;;
5343;SDS011;2694;48.954;8.928;2023-10-09T09:28:25;23.58;;;5.70;;
5343;SDS011;2694;48.954;8.928;2023-10-09T09:31:03;31.63;;;5.87;;
5343;SDS011;2694;48.954;8.928;2023-10-09T09:33:38;19.83;;;4.93;;
5343;SDS011;2694;48.954;8.928;2023-10-09T09:36:06;30.00;;;6.03;;
5343;SDS011;2694;48.954;8.928;2023-10-09T09:38:36;26.85;;;5.80;;
5343;SDS011;2694;48.954;8.928;2023-10-09T09:41:12;20.50;;;4.45;;
5343;SDS011;2694;48.954;8.928;2023-10-09T09:43:49;22.23;;;3.55;;
5343;SDS011;2694;48.954;8.928;2023-10-09T09:46:21;16.60;;;3.40;;
5343;SDS011;2694;48.954;8.928;2023-10-09T09:48:53;10.38;;;3.00;;
5343;SDS011;2694;48.954;8.928;2023-10-09T09:51:25;12.70;;;3.40;;
5343;SDS011;2694;48.954;8.928;2023-10-09T09:53:54;26.27;;;3.40;;
5343;SDS011;2694;48.954;8.928;2023-10-09T09:56:23;15.45;;;3.20;;
5343;SDS011;2694;48.954;8.928;2023-10-09T09:58:52;11.88;;;3.33;;
5343;SDS011;2694;48.954;8.928;2023-10-09T10:01:22;15.40;;;2.90;;
5343;SDS011;2694;48.954;8.928;2023-10-09T10:03:53;17.08;;;3.78;;
5343;SDS011;2694;48.954;8.928;2023-10-09T10:06:24;12.82;;;2.75;;
5343;SDS011;2694;48.954;8.928;2023-10-09T10:08:54;13.73;;;2.50;;
5343;SDS011;2694;48.954;8.928;2023-10-09T10:14:12;12.50;;;3.05;;
5343;SDS011;2694;48.954;8.928;2023-10-09T10:16:59;16.70;;;2.72;;
5343;SDS011;2694;48.954;8.928;2023-10-09T10:22:50;12.35;;;2.92;;
5343;SDS011;2694;48.954;8.928;2023-10-09T10:25:32;18.30;;;3.27;;
5343;SDS011;2694;48.954;8.928;2023-10-09T10:28:16;14.15;;;2.70;;
5343;SDS011;2694;48.954;8.928;2023-10-09T10:30:54;14.70;;;3.17;;
5343;SDS011;2694;48.954;8.928;2023-10-09T10:33:25;17.33;;;2.45;;
5343;SDS011;2694;48.954;8.928;2023-10-09T10:35:53;14.65;;;2.60;;
5343;SDS011;2694;48.954;8.928;2023-10-09T10:38:27;18.92;;;3.03;;
5343;SDS011;2694;48.954;8.928;2023-10-09T10:41:12;11.88;;;2.67;;
5343;SDS011;2694;48.954;8.928;2023-10-09T10:43:41;18.27;;;2.40;;
5343;SDS011;2694;48.954;8.928;2023-10-09T10:46:22;14.10;;;2.95;;
5343;SDS011;2694;48.954;8.928;2023-10-09T10:49:04;12.67;;;2.50;;
5343;SDS011;2694;48.954;8.928;2023-10-09T10:51:41;16.83;;;3.13;;
5343;SDS011;2694;48.954;8.928;2023-10-09T10:54:20;10.00;;;2.50;;
5343;SDS011;2694;48.954;8.928;2023-10-09T10:57:13;13.57;;;2.90;;
5343;SDS011;2694;48.954;8.928;2023-10-09T10:59:53;12.23;;;2.70;;
5343;SDS011;2694;48.954;8.928;2023-10-09T11:02:38;9.07;;;2.83;;
5343;SDS011;2694;48.954;8.928;2023-10-09T11:05:07;12.48;;;3.10;;
5343;SDS011;2694;48.954;8.928;2023-10-09T11:07:49;15.82;;;2.60;;
5343;SDS011;2694;48.954;8.928;2023-10-09T11:10:21;16.48;;;3.10;;
5343;SDS011;2694;48.954;8.928;2023-10-09T11:12:53;11.33;;;3.53;;
5343;SDS011;2694;48.954;8.928;2023-10-09T11:15:43;11.63;;;2.97;;
5343;SDS011;2694;48.954;8.928;2023-10-09T11:18:13;15.52;;;3.05;;
5343;SDS011;2694;48.954;8.928;2023-10-09T11:20:48;12.88;;;3.00;;
5343;SDS011;2694;48.954;8.928;2023-10-09T11:23:36;12.48;;;2.95;;
5343;SDS011;2694;48.954;8.928;2023-10-09T11:26:04;20.80;;;3.30;;
5343;SDS011;2694;48.954;8.928;2023-10-09T11:29:05;18.52;;;3.10;;
5343;SDS011;2694;48.954;8.928;2023-10-09T11:31:38;12.83;;;3.00;;
5343;SDS011;2694;48.954;8.928;2023-10-09T11:34:08;16.40;;;2.97;;
5343;SDS011;2694;48.954;8.928;2023-10-09T11:36:54;13.10;;;3.20;;
5343;SDS011;2694;48.954;8.928;2023-10-09T11:39:24;12.48;;;3.22;;
5343;SDS011;2694;48.954;8.928;2023-10-09T11:42:04;10.55;;;2.65;;
5343;SDS011;2694;48.954;8.928;2023-10-09T11:44:34;12.07;;;3.08;;
5343;SDS011;2694;48.954;8.928;2023-10-09T11:47:04;13.98;;;3.30;;
5343;SDS011;2694;48.954;8.928;2023-10-09T11:49:49;15.50;;;2.80;;
5343;SDS011;2694;48.954;8.928;2023-10-09T11:52:41;16.83;;;3.30;;
5343;SDS011;2694;48.954;8.928;2023-10-09T11:55:33;14.85;;;3.33;;
5343;SDS011;2694;48.954;8.928;2023-10-09T11:58:01;18.03;;;3.20;;
5343;SDS011;2694;48.954;8.928;2023-10-09T12:00:30;14.68;;;2.90;;
5343;SDS011;2694;48.954;8.928;2023-10-09T12:03:07;16.27;;;3.60;;
5343;SDS011;2694;48.954;8.928;2023-10-09T12:05:36;12.80;;;2.97;;
5343;SDS011;2694;48.954;8.928;2023-10-09T12:08:03;10.70;;;2.90;;
5343;SDS011;2694;48.954;8.928;2023-10-09T12:10:33;9.27;;;2.72;;
5343;SDS011;2694;48.954;8.928;2023-10-09T12:13:03;12.95;;;2.78;;
5343;SDS011;2694;48.954;8.928;2023-10-09T12:15:30;14.67;;;2.90;;
5343;SDS011;2694;48.954;8.928;2023-10-09T12:18:03;17.35;;;2.97;;
5343;SDS011;2694;48.954;8.928;2023-10-09T12:20:35;12.50;;;3.42;;
5343;SDS011;2694;48.954;8.928;2023-10-09T12:23:03;12.90;;;3.00;;
5343;SDS011;2694;48.954;8.928;2023-10-09T12:25:31;17.38;;;3.00;;
5343;SDS011;2694;48.954;8.928;2023-10-09T12:27:58;10.52;;;3.30;;
5343;SDS011;2694;48.954;8.928;2023-10-09T12:30:26;15.30;;;3.20;;
5343;SDS011;2694;48.954;8.928;2023-10-09T12:32:54;13.55;;;3.13;;
5343;SDS011;2694;48.954;8.928;2023-10-09T12:35:22;18.20;;;3.40;;
5343;SDS011;2694;48.954;8.928;2023-10-09T12:37:51;18.30;;;3.42;;
5343;SDS011;2694;48.954;8.928;2023-10-09T12:40:20;14.48;;;3.00;;
5343;SDS011;2694;48.954;8.928;2023-10-09T12:42:52;14.02;;;3.30;;
5343;SDS011;2694;48.954;8.928;2023-10-09T12:45:20;13.35;;;3.40;;
5343;SDS011;2694;48.954;8.928;2023-10-09T12:47:51;13.95;;;3.90;;
5343;SDS011;2694;48.954;8.928;2023-10-09T12:50:19;11.13;;;3.13;;
5343;SDS011;2694;48.954;8.928;2023-10-09T12:52:54;19.02;;;4.00;;
5343;SDS011;2694;48.954;8.928;2023-10-09T12:55:21;14.48;;;3.28;;
5343;SDS011;2694;48.954;8.928;2023-10-09T12:57:57;15.15;;;3.60;;
5343;SDS011;2694;48.954;8.928;2023-10-09T13:00:31;17.38;;;4.00;;
5343;SDS011;2694;48.954;8.928;2023-10-09T13:02:58;10.10;;;2.90;;
5343;SDS011;2694;48.954;8.928;2023-10-09T13:05:27;14.50;;;3.80;;
5343;SDS011;2694;48.954;8.928;2023-10-09T13:07:55;13.90;;;3.92;;
5343;SDS011;2694;48.954;8.928;2023-10-09T13:10:23;16.35;;;3.67;;
5343;SDS011;2694;48.954;8.928;2023-10-09T13:12:50;14.38;;;4.72;;
5343;SDS011;2694;48.954;8.928;2023-10-09T13:15:21;22.52;;;6.53;;
5343;SDS011;2694;48.954;8.928;2023-10-09T13:17:48;19.10;;;4.20;;
5343;SDS011;2694;48.954;8.928;2023-10-09T13:20:18;15.35;;;3.80;;
5343;SDS011;2694;48.954;8.928;2023-10-09T13:22:46;13.90;;;3.40;;
5343;SDS011;2694;48.954;8.928;2023-10-09T13:25:15;18.15;;;4.18;;
5343;SDS011;2694;48.954;8.928;2023-10-09T13:27:49;18.33;;;5.82;;
5343;SDS011;2694;48.954;8.928;2023-10-09T13:30:17;22.17;;;6.40;;
5343;SDS011;2694;48.954;8.928;2023-10-09T13:32:48;18.17;;;5.77;;
5343;SDS011;2694;48.954;8.928;2023-10-09T13:35:16;18.00;;;5.35;;
5343;SDS011;2694;48.954;8.928;2023-10-09T13:37:44;15.80;;;4.47;;
5343;SDS011;2694;48.954;8.928;2023-10-09T13:40:21;21.73;;;5.47;;
5343;SDS011;2694;48.954;8.928;2023-10-09T13:42:53;19.67;;;6.10;;
5343;SDS011;2694;48.954;8.928;2023-10-09T13:45:24;15.77;;;4.80;;
5343;SDS011;2694;48.954;8.928;2023-10-09T13:47:53;17.60;;;6.03;;
5343;SDS011;2694;48.954;8.928;2023-10-09T13:50:23;16.70;;;4.80;;
5343;SDS011;2694;48.954;8.928;2023-10-09T13:52:54;14.47;;;5.00;;
5343;SDS011;2694;48.954;8.928;2023-10-09T13:55:23;17.35;;;5.80;;
5343;SDS011;2694;48.954;8.928;2023-10-09T13:57:56;15.32;;;5.40;;
5343;SDS011;2694;48.954;8.928;2023-10-09T14:00:23;15.05;;;4.47;;
5343;SDS011;2694;48.954;8.928;2023-10-09T14:02:59;25.50;;;4.70;;
5343;SDS011;2694;48.954;8.928;2023-10-09T14:05:36;13.30;;;4.40;;
5343;SDS011;2694;48.954;8.928;2023-10-09T14:08:17;14.90;;;4.53;;
5343;SDS011;2694;48.954;8.928;2023-10-09T14:10:48;14.67;;;4.60;;
5343;SDS011;2694;48.954;8.928;2023-10-09T14:13:15;15.77;;;4.88;;
5343;SDS011;2694;48.954;8.928;2023-10-09T14:15:51;14.60;;;4.87;;
5343;SDS011;2694;48.954;8.928;2023-10-09T14:18:19;18.33;;;6.05;;
5343;SDS011;2694;48.954;8.928;2023-10-09T14:20:46;21.70;;;5.43;;
5343;SDS011;2694;48.954;8.928;2023-10-09T14:23:15;19.27;;;5.70;;
5343;SDS011;2694;48.954;8.928;2023-10-09T14:25:46;19.70;;;4.83;;
5343;SDS011;2694;48.954;8.928;2023-10-09T14:28:16;18.73;;;6.40;;
5343;SDS011;2694;48.954;8.928;2023-10-09T14:30:44;19.80;;;5.88;;
5343;SDS011;2694;48.954;8.928;2023-10-09T14:33:14;18.88;;;4.75;;
5343;SDS011;2694;48.954;8.928;2023-10-09T14:35:48;16.52;;;6.32;;
5343;SDS011;2694;48.954;8.928;2023-10-09T14:38:17;21.88;;;6.88;;
5343;SDS011;2694;48.954;8.928;2023-10-09T14:40:51;18.65;;;4.80;;
5343;SDS011;2694;48.954;8.928;2023-10-09T14:43:24;14.48;;;5.20;;
5343;SDS011;2694;48.954;8.928;2023-10-09T14:45:53;14.80;;;4.43;;
5343;SDS011;2694;48.954;8.928;2023-10-09T14:48:20;18.80;;;4.80;;
5343;SDS011;2694;48.954;8.928;2023-10-09T14:50:51;17.35;;;4.95;;
5343;SDS011;2694;48.954;8.928;2023-10-09T14:53:19;15.48;;;5.45;;
5343;SDS011;2694;48.954;8.928;2023-10-09T14:55:46;20.55;;;5.35;;
5343;SDS011;2694;48.954;8.928;2023-10-09T14:58:19;19.80;;;5.13;;
5343;SDS011;2694;48.954;8.928;2023-10-09T15:00:51;20.25;;;4.75;;
5343;SDS011;2694;48.954;8.928;2023-10-09T15:03:19;13.48;;;4.40;;
5343;SDS011;2694;48.954;8.928;2023-10-09T15:05:48;18.02;;;4.63;;
5343;SDS011;2694;48.954;8.928;2023-10-09T15:08:15;16.10;;;4.70;;
5343;SDS011;2694;48.954;8.928;2023-10-09T15:10:46;18.52;;;4.97;;
5343;SDS011;2694;48.954;8.928;2023-10-09T15:13:13;21.50;;;4.82;;
5343;SDS011;2694;48.954;8.928;2023-10-09T15:15:41;17.50;;;4.40;;
5343;SDS011;2694;48.954;8.928;2023-10-09T15:18:10;15.83;;;4.70;;
5343;SDS011;2694;48.954;8.928;2023-10-09T15:20:38;20.73;;;4.97;;
5343;SDS011;2694;48.954;8.928;2023-10-09T15:23:06;17.35;;;4.70;;
5343;SDS011;2694;48.954;8.928;2023-10-09T15:25:34;19.13;;;4.88;;
5343;SDS011;2694;48.954;8.928;2023-10-09T15:28:04;14.10;;;3.88;;
5343;SDS011;2694;48.954;8.928;2023-10-09T15:30:32;17.90;;;4.50;;
5343;SDS011;2694;48.954;8.928;2023-10-09T15:32:59;15.98;;;4.22;;
5343;SDS011;2694;48.954;8.928;2023-10-09T15:35:28;21.00;;;4.63;;
5343;SDS011;2694;48.954;8.928;2023-10-09T15:37:55;16.90;;;4.60;;
5343;SDS011;2694;48.954;8.928;2023-10-09T15:40:21;17.30;;;4.70;;
5343;SDS011;2694;48.954;8.928;2023-10-09T15:42:50;19.53;;;4.00;;
5343;SDS011;2694;48.954;8.928;2023-10-09T15:45:21;21.53;;;4.53;;
5343;SDS011;2694;48.954;8.928;2023-10-09T15:47:47;15.07;;;4.13;;
5343;SDS011;2694;48.954;8.928;2023-10-09T15:50:16;21.52;;;4.47;;